createdAt,value
2022-11-24T00:01:13.240Z,95948.88
2022-11-24T00:03:40.796Z,95945.31
2022-11-24T00:06:10.904Z,95942.72
2022-11-24T00:08:40.076Z,95941.09
2022-11-24T00:11:09.645Z,95944.66
2022-11-24T00:13:39.062Z,95946.28
2022-11-24T00:16:12.819Z,95938.31
2022-11-24T00:18:41.657Z,95944.31
2022-11-24T00:21:09.566Z,95946.91
2022-11-24T00:23:37.788Z,95948.69
2022-11-24T00:26:07.636Z,95944.31
2022-11-24T00:28:35.482Z,95949.31
2022-11-24T00:31:03.652Z,95946.72
2022-11-24T00:33:33.168Z,95951.94
2022-11-24T00:36:01.464Z,95950.13
2022-11-24T00:38:29.014Z,95956.31
2022-11-24T00:40:56.554Z,95953.91
2022-11-24T00:43:24.071Z,95955.88
2022-11-24T00:45:51.691Z,95958.47
2022-11-24T00:48:19.238Z,95957.47
2022-11-24T00:50:56.741Z,95962.50
2022-11-24T00:53:24.269Z,95960.06
2022-11-24T00:55:51.792Z,95963.66
2022-11-24T00:58:19.815Z,95969.66
2022-11-24T01:00:47.386Z,95971.28
2022-11-24T01:03:15.758Z,95976.28
2022-11-24T01:05:43.628Z,95975.50
2022-11-24T01:08:12.889Z,95985.88
2022-11-24T01:10:40.416Z,95992.72
2022-11-24T01:13:07.963Z,95984.91
2022-11-24T01:15:36.567Z,95994.31
2022-11-24T01:18:04.315Z,95984.91
2022-11-24T01:20:31.883Z,95994.31
2022-11-24T01:22:59.430Z,95990.72
2022-11-24T01:25:28.341Z,95995.91
2022-11-24T01:27:55.872Z,96001.09
2022-11-24T01:30:23.421Z,96011.50
2022-11-24T01:32:50.999Z,96014.09
2022-11-24T01:35:18.783Z,96021.91
2022-11-24T01:37:46.505Z,96023.69
2022-11-24T01:40:14.094Z,96028.09
2022-11-24T01:42:49.850Z,96033.28
2022-11-24T01:45:36.966Z,96037.50
2022-11-24T01:48:08.212Z,96042.69
2022-11-24T01:50:36.877Z,96035.09
2022-11-24T01:53:05.799Z,96042.28
2022-11-24T01:55:38.538Z,96036.28
2022-11-24T01:58:09.019Z,96044.88
2022-11-24T02:00:38.862Z,96053.81
2022-11-24T02:03:06.534Z,96048.16
2022-11-24T02:05:41.702Z,96051.75
2022-11-24T02:08:16.797Z,96048.53
2022-11-24T02:10:46.446Z,96046.91
2022-11-24T02:13:16.377Z,96055.69
2022-11-24T02:15:44.068Z,96050.66
2022-11-24T02:18:11.887Z,96056.66
2022-11-24T02:20:39.569Z,96054.88
2022-11-24T02:23:16.530Z,96055.69
2022-11-24T02:25:51.109Z,96059.28
2022-11-24T02:28:23.064Z,96065.25
2022-11-24T02:30:51.447Z,96058.09
2022-11-24T02:33:21.440Z,96058.09
2022-11-24T02:35:49.238Z,96067.69
2022-11-24T02:38:16.725Z,96070.13
2022-11-24T02:40:47.680Z,96077.91
2022-11-24T02:43:20.398Z,96071.72
2022-11-24T02:45:49.121Z,96072.97
2022-11-24T02:48:17.270Z,96078.16
2022-11-24T02:50:44.767Z,96083.38
2022-11-24T02:53:12.385Z,96082.56
2022-11-24T02:55:39.902Z,96091.81
2022-11-24T02:58:07.497Z,96088.25
2022-11-24T03:00:35.046Z,96089.06
2022-11-24T03:03:04.672Z,96096.06
2022-11-24T03:05:32.264Z,96098.66
2022-11-24T03:07:59.799Z,96097.81
2022-11-24T03:10:28.444Z,96100.25
2022-11-24T03:12:56.330Z,96099.28
2022-11-24T03:15:24.060Z,96100.69
2022-11-24T03:17:51.860Z,96103.09
2022-11-24T03:20:20.728Z,96104.72
2022-11-24T03:22:48.254Z,96099.53
2022-11-24T03:25:15.947Z,96107.97
2022-11-24T03:27:43.432Z,96111.19
2022-11-24T03:30:12.465Z,96115.38
2022-11-24T03:32:40.081Z,96114.41
2022-11-24T03:35:08.135Z,96115.38
2022-11-24T03:37:37.259Z,96118.19
2022-11-24T03:40:05.612Z,96121.59
2022-11-24T03:42:33.139Z,96117.97
2022-11-24T03:45:16.713Z,96119.94
2022-11-24T03:47:51.294Z,96117.34
2022-11-24T03:50:19.104Z,96120.78
2022-11-24T03:52:47.999Z,96114.75
2022-11-24T03:55:15.665Z,96118.34
2022-11-24T03:57:43.304Z,96121.94
2022-11-24T04:00:12.148Z,96126.94
2022-11-24T04:02:39.726Z,96128.75
2022-11-24T04:05:08.147Z,96127.13
2022-11-24T04:07:35.705Z,96139.16
2022-11-24T04:10:05.194Z,96150.50
2022-11-24T04:12:46.884Z,96153.13
2022-11-24T04:15:16.762Z,96150.50
2022-11-24T04:17:44.522Z,96150.50
2022-11-24T04:20:13.541Z,96149.72
2022-11-24T04:22:41.405Z,96153.94
2022-11-24T04:25:11.342Z,96155.72
2022-11-24T04:27:39.759Z,96163.50
2022-11-24T04:30:08.763Z,96163.50
2022-11-24T04:32:36.267Z,96160.28
2022-11-24T04:35:04.171Z,96167.44
2022-11-24T04:37:31.667Z,96169.63
2022-11-24T04:39:59.203Z,96186.03
2022-11-24T04:42:28.087Z,96188.00
2022-11-24T04:44:55.666Z,96182.13
2022-11-24T04:47:25.250Z,96194.16
2022-11-24T04:49:53.555Z,96194.16
2022-11-24T04:52:22.507Z,96192.22
2022-11-24T04:54:50.418Z,96195.44
2022-11-24T04:57:18.935Z,96193.44
2022-11-24T04:59:47.884Z,96200.28
2022-11-24T05:02:15.407Z,96191.47
2022-11-24T05:04:43.129Z,96198.31
2022-11-24T05:07:17.926Z,96202.72
2022-11-24T05:10:03.760Z,96198.31
2022-11-24T05:12:31.942Z,96203.50
2022-11-24T05:15:01.928Z,96204.31
2022-11-24T05:17:30.692Z,96212.75
2022-11-24T05:19:58.343Z,96211.94
2022-11-24T05:22:26.950Z,96214.53
2022-11-24T05:24:54.526Z,96215.34
2022-11-24T05:27:22.522Z,96214.38
2022-11-24T05:29:50.071Z,96216.75
2022-11-24T05:32:18.934Z,96219.19
2022-11-24T05:34:46.518Z,96209.59
2022-11-24T05:37:14.139Z,96209.59
2022-11-24T05:39:50.131Z,96209.59
2022-11-24T05:42:45.135Z,96216.59
2022-11-24T05:45:19.709Z,96223.59
2022-11-24T05:47:52.144Z,96215.97
2022-11-24T05:50:22.860Z,96215.16
2022-11-24T05:52:50.973Z,96219.72
2022-11-24T05:55:20.116Z,96220.69
2022-11-24T05:57:48.131Z,96222.34
2022-11-24T06:00:18.077Z,96224.31
2022-11-24T06:02:46.165Z,96219.09
2022-11-24T06:05:15.725Z,96225.91
2022-11-24T06:07:44.048Z,96220.69
2022-11-24T06:10:11.757Z,96226.28
2022-11-24T06:12:39.388Z,96226.00
2022-11-24T06:15:08.190Z,96230.06
2022-11-24T06:17:35.967Z,96236.13
2022-11-24T06:20:03.874Z,96235.44
2022-11-24T06:22:33.758Z,96243.28
2022-11-24T06:25:01.535Z,96249.16
2022-11-24T06:27:29.490Z,96245.47
2022-11-24T06:29:57.215Z,96245.81
2022-11-24T06:32:25.371Z,96254.16
2022-11-24T06:34:53.132Z,96254.47
2022-11-24T06:37:20.861Z,96251.59
2022-11-24T06:39:50.030Z,96244.16
2022-11-24T06:42:19.120Z,96246.75
2022-11-24T06:44:47.554Z,96248.72
2022-11-24T06:47:15.260Z,96249.25
2022-11-24T06:49:43.071Z,96251.38
2022-11-24T06:52:10.775Z,96255.75
2022-11-24T06:54:38.467Z,96250.56
2022-11-24T06:57:07.546Z,96248.47
2022-11-24T06:59:35.175Z,96248.00
2022-11-24T07:02:02.735Z,96251.91
2022-11-24T07:04:30.457Z,96250.47
2022-11-24T07:06:58.301Z,96262.66
2022-11-24T07:09:25.997Z,96261.03
2022-11-24T07:11:55.990Z,96267.84
2022-11-24T07:14:25.169Z,96268.66
2022-11-24T07:16:52.935Z,96270.72
2022-11-24T07:19:24.903Z,96273.97
2022-11-24T07:21:52.822Z,96273.63
2022-11-24T07:24:20.580Z,96279.63
2022-11-24T07:26:48.411Z,96277.69
2022-11-24T07:29:16.084Z,96280.09
2022-11-24T07:31:46.012Z,96281.34
2022-11-24T07:34:14.687Z,96284.59
2022-11-24T07:36:42.847Z,96292.22
2022-11-24T07:39:10.856Z,96284.28
2022-11-24T07:41:38.614Z,96292.66
2022-11-24T07:44:06.734Z,96294.31
2022-11-24T07:46:34.480Z,96293.31
2022-11-24T07:49:03.760Z,96294.13
2022-11-24T07:51:31.387Z,96291.19
2022-11-24T07:53:59.125Z,96302.06
2022-11-24T07:56:26.941Z,96293.25
2022-11-24T07:58:54.650Z,96298.47
2022-11-24T08:01:22.514Z,96294.06
2022-11-24T08:03:51.599Z,96306.09
2022-11-24T08:06:28.580Z,96305.56
2022-11-24T08:09:00.764Z,96309.28
2022-11-24T08:11:31.449Z,96317.50
2022-11-24T08:13:59.321Z,96322.53
2022-11-24T08:16:27.084Z,96320.75
2022-11-24T08:18:56.603Z,96340.72
2022-11-24T08:21:26.370Z,96350.75
2022-11-24T08:23:56.023Z,96343.44
2022-11-24T08:26:24.720Z,96353.03
2022-11-24T08:28:55.712Z,96359.38
2022-11-24T08:31:24.879Z,96355.16
2022-11-24T08:33:52.708Z,96361.16
2022-11-24T08:36:20.692Z,96360.34
2022-11-24T08:38:50.112Z,96360.34
2022-11-24T08:41:18.316Z,96368.16
2022-11-24T08:43:46.035Z,96364.75
2022-11-24T08:46:17.199Z,96372.38
2022-11-24T08:48:45.595Z,96368.78
2022-11-24T08:51:15.357Z,96379.19
2022-11-24T08:53:43.806Z,96372.38
2022-11-24T08:56:14.308Z,96369.78
2022-11-24T08:58:42.733Z,96370.59
2022-11-24T09:01:12.366Z,96378.38
2022-11-24T09:03:44.969Z,96370.38
2022-11-24T09:06:18.283Z,96368.78
2022-11-24T09:08:46.229Z,96371.22
2022-11-24T09:11:17.253Z,96372.38
2022-11-24T09:13:45.739Z,96365.56
2022-11-24T09:16:15.126Z,96371.22
2022-11-24T09:18:43.326Z,96375.25
2022-11-24T09:21:12.014Z,96380.09
2022-11-24T09:23:40.631Z,96373.94
2022-11-24T09:26:09.789Z,96378.78
2022-11-24T09:28:38.968Z,96384.63
2022-11-24T09:31:08.761Z,96394.66
2022-11-24T09:33:37.192Z,96391.09
2022-11-24T09:36:06.085Z,96391.09
2022-11-24T09:38:34.019Z,96391.09
2022-11-24T09:41:22.213Z,96381.16
2022-11-24T09:44:00.375Z,96381.81
2022-11-24T09:46:33.981Z,96392.66
2022-11-24T09:49:03.737Z,96385.66
2022-11-24T09:51:33.142Z,96393.31
2022-11-24T09:54:06.623Z,96387.97
2022-11-24T09:56:36.171Z,96387.78
2022-11-24T09:59:11.826Z,96397.47
2022-11-24T10:01:43.209Z,96397.59
2022-11-24T10:04:16.003Z,96411.28
2022-11-24T10:06:46.585Z,96411.59
2022-11-24T10:09:25.720Z,96419.28
2022-11-24T10:12:04.155Z,96403.41
2022-11-24T10:14:59.728Z,96414.91
2022-11-24T10:17:42.227Z,96411.88
2022-11-24T10:20:18.579Z,96423.19
2022-11-24T10:22:58.340Z,96418.91
2022-11-24T10:25:27.214Z,96421.38
2022-11-24T10:27:59.945Z,96429.59
2022-11-24T10:30:28.737Z,96423.69
2022-11-24T10:32:59.413Z,96435.34
2022-11-24T10:35:31.646Z,96434.19
2022-11-24T10:38:08.352Z,96434.63
2022-11-24T10:40:56.458Z,96431.59
2022-11-24T10:43:27.493Z,96424.13
2022-11-24T10:46:01.658Z,96430.53
2022-11-24T10:48:38.008Z,96436.13
2022-11-24T10:51:33.512Z,96431.25
2022-11-24T10:54:06.719Z,96429.22
2022-11-24T10:56:40.191Z,96433.97
2022-11-24T10:59:30.147Z,96427.56
2022-11-24T11:01:59.877Z,96437.97
2022-11-24T11:04:29.975Z,96435.38
2022-11-24T11:07:17.218Z,96438.34
2022-11-24T11:09:44.778Z,96440.31
2022-11-24T11:12:42.689Z,96440.31
2022-11-24T11:15:29.663Z,96437.09
2022-11-24T11:18:00.338Z,96438.72
2022-11-24T11:20:31.148Z,96444.78
2022-11-24T11:23:01.344Z,96443.94
2022-11-24T11:25:33.651Z,96441.47
2022-11-24T11:28:23.975Z,96440.56
2022-11-24T11:34:03.716Z,96442.53
2022-11-24T11:36:34.053Z,96453.66
2022-11-24T11:39:01.741Z,96447.44
2022-11-24T11:41:33.788Z,96448.59
2022-11-24T11:44:12.893Z,96458.25
2022-11-24T11:46:40.481Z,96456.44
2022-11-24T11:49:12.441Z,96452.91
2022-11-24T11:51:53.319Z,96454.13
2022-11-24T11:54:31.385Z,96453.34
2022-11-24T11:57:08.957Z,96460.72
2022-11-24T11:59:51.828Z,96463.91
2022-11-24T12:02:53.319Z,96463.28
2022-11-24T12:05:30.934Z,96467.09
2022-11-24T12:08:17.543Z,96464.53
2022-11-24T12:10:54.433Z,96461.53
2022-11-24T12:13:45.315Z,96461.91
2022-11-24T12:16:27.594Z,96458.31
2022-11-24T12:19:12.502Z,96467.16
2022-11-24T12:21:48.939Z,96460.88
2022-11-24T12:24:23.133Z,96467.09
2022-11-24T12:26:55.971Z,96473.91
2022-11-24T12:30:04.999Z,96475.53
2022-11-24T12:33:10.726Z,96474.13
2022-11-24T12:35:43.366Z,96478.91
2022-11-24T12:38:33.317Z,96478.28
2022-11-24T12:41:40.284Z,96478.47
2022-11-24T12:44:16.700Z,96482.94
2022-11-24T12:46:55.736Z,96492.00
2022-11-24T12:49:31.633Z,96487.59
2022-11-24T12:52:03.660Z,96488.41
2022-11-24T12:54:39.690Z,96480.50
2022-11-24T12:57:13.292Z,96487.47
2022-11-24T12:59:45.336Z,96486.44
2022-11-24T13:02:27.722Z,96496.63
2022-11-24T13:05:02.490Z,96491.34
2022-11-24T13:07:44.816Z,96492.91
2022-11-24T13:10:54.892Z,96494.28
2022-11-24T13:13:19.560Z,96499.03
2022-11-24T13:16:35.896Z,96501.41
2022-11-24T13:19:14.182Z,96509.97
2022-11-24T13:22:01.709Z,96507.91
2022-11-24T13:24:31.666Z,96516.09
2022-11-24T13:27:29.262Z,96520.25
2022-11-24T13:29:56.845Z,96518.56
2022-11-24T13:33:01.105Z,96519.66
2022-11-24T13:35:29.237Z,96524.41
2022-11-24T13:37:57.613Z,96530.19
2022-11-24T13:40:54.379Z,96528.25
2022-11-24T13:43:30.076Z,96524.59
2022-11-24T13:45:57.650Z,96525.78
2022-11-24T13:48:53.335Z,96527.75
2022-11-24T13:51:25.232Z,96526.94
2022-11-24T13:53:55.994Z,96524.84
2022-11-24T13:56:27.297Z,96531.25
2022-11-24T13:58:58.854Z,96532.06
2022-11-24T14:01:28.361Z,96528.00
2022-11-24T14:04:30.443Z,96526.41
2022-11-24T14:07:07.419Z,96523.16
2022-11-24T14:09:41.341Z,96531.16
2022-11-24T14:12:13.458Z,96533.41
2022-11-24T14:14:42.999Z,96529.19
2022-11-24T14:17:19.828Z,96526.75
2022-11-24T14:19:49.328Z,96535.56
2022-11-24T14:22:18.982Z,96538.16
2022-11-24T14:24:52.094Z,96524.34
2022-11-24T14:27:24.490Z,96533.13
2022-11-24T14:30:01.749Z,96538.34
2022-11-24T14:32:29.919Z,96540.31
2022-11-24T14:34:57.582Z,96542.28
2022-11-24T14:37:25.327Z,96543.47
2022-11-24T14:39:54.090Z,96541.47
2022-11-24T14:42:23.597Z,96544.88
2022-11-24T14:44:55.503Z,96546.88
2022-11-24T14:47:31.265Z,96548.66
2022-11-24T14:50:09.681Z,96557.47
2022-11-24T14:52:43.406Z,96550.63
2022-11-24T14:55:25.279Z,96551.81
2022-11-24T14:57:52.786Z,96550.53
2022-11-24T15:00:26.949Z,96559.34
2022-11-24T15:03:08.043Z,96555.13
2022-11-24T15:05:51.482Z,96556.13
2022-11-24T15:08:19.159Z,96556.13
2022-11-24T15:10:47.499Z,96559.69
2022-11-24T15:13:18.469Z,96554.50
2022-11-24T15:15:50.401Z,96561.34
2022-11-24T15:18:27.269Z,96558.09
2022-11-24T15:20:55.767Z,96560.06
2022-11-24T15:23:25.769Z,96558.25
2022-11-24T15:25:54.258Z,96567.72
2022-11-24T15:28:25.625Z,96571.28
2022-11-24T15:30:55.076Z,96566.28
2022-11-24T15:33:24.521Z,96566.28
2022-11-24T15:35:52.710Z,96569.06
2022-11-24T15:38:20.828Z,96571.34
2022-11-24T15:40:49.896Z,96577.09
2022-11-24T15:43:29.788Z,96582.66
2022-11-24T15:45:58.003Z,96580.75
2022-11-24T15:48:27.167Z,96580.13
2022-11-24T15:50:55.281Z,96575.91
2022-11-24T15:53:25.909Z,96578.84
2022-11-24T15:55:53.874Z,96580.00
2022-11-24T15:58:21.345Z,96584.78
2022-11-24T16:00:48.966Z,96584.84
2022-11-24T16:03:45.791Z,96591.88
2022-11-24T16:06:05.675Z,96604.16
2022-11-24T16:08:33.183Z,96602.22
2022-11-24T16:11:02.810Z,96608.13
2022-11-24T16:13:37.040Z,96615.00
2022-11-24T16:16:06.742Z,96612.09
2022-11-24T16:18:39.381Z,96607.56
2022-11-24T16:21:09.824Z,96615.06
2022-11-24T16:23:40.668Z,96614.78
2022-11-24T16:26:09.168Z,96616.09
2022-11-24T16:28:38.347Z,96614.66
2022-11-24T16:31:06.681Z,96607.84
2022-11-24T16:33:35.105Z,96615.78
2022-11-24T16:36:03.688Z,96609.78
2022-11-24T16:38:33.777Z,96610.59
2022-11-24T16:41:05.185Z,96608.00
2022-11-24T16:43:33.483Z,96600.19
2022-11-24T16:46:22.203Z,96601.78
2022-11-24T16:48:52.158Z,96606.34
2022-11-24T16:51:21.764Z,96600.50
2022-11-24T16:53:58.602Z,96607.66
2022-11-24T16:56:27.620Z,96604.47
2022-11-24T16:58:56.375Z,96605.41
2022-11-24T17:01:26.177Z,96608.19
2022-11-24T17:03:56.524Z,96608.38
2022-11-24T17:06:25.661Z,96603.16
2022-11-24T17:08:59.975Z,96601.53
2022-11-24T17:11:29.808Z,96612.28
2022-11-24T17:13:59.392Z,96608.41
2022-11-24T17:16:28.602Z,96600.28
2022-11-24T17:18:58.856Z,96615.53
2022-11-24T17:21:32.346Z,96612.78
2022-11-24T17:24:07.161Z,96616.69
2022-11-24T17:26:35.688Z,96609.25
2022-11-24T17:29:09.332Z,96606.00
2022-11-24T17:31:41.369Z,96616.09
2022-11-24T17:34:12.334Z,96619.19
2022-11-24T17:36:42.140Z,96615.63
2022-11-24T17:39:11.457Z,96617.25
2022-11-24T17:41:39.473Z,96620.19
2022-11-24T17:44:08.508Z,96618.91
2022-11-24T17:46:37.101Z,96623.94
2022-11-24T17:49:06.550Z,96620.19
2022-11-24T17:51:34.055Z,96609.16
2022-11-24T17:54:13.599Z,96623.44
2022-11-24T17:56:50.826Z,96616.00
2022-11-24T17:59:18.826Z,96623.13
2022-11-24T18:01:46.454Z,96621.19
2022-11-24T18:04:14.101Z,96618.25
2022-11-24T18:06:41.655Z,96614.66
2022-11-24T18:09:09.248Z,96619.53
2022-11-24T18:11:37.085Z,96628.81
2022-11-24T18:14:06.601Z,96628.44
2022-11-24T18:16:35.378Z,96641.75
2022-11-24T18:19:08.848Z,96634.47
2022-11-24T18:21:37.554Z,96630.41
2022-11-24T18:24:05.295Z,96628.25
2022-11-24T18:26:33.095Z,96630.19
2022-11-24T18:29:00.737Z,96632.16
2022-11-24T18:31:31.373Z,96632.81
2022-11-24T18:34:00.182Z,96635.03
2022-11-24T18:36:30.526Z,96636.16
2022-11-24T18:38:58.446Z,96635.69
2022-11-24T18:41:26.113Z,96631.13
2022-11-24T18:43:53.958Z,96639.53
2022-11-24T18:46:21.670Z,96639.22
2022-11-24T18:48:51.957Z,96646.31
2022-11-24T18:51:19.776Z,96638.19
2022-11-24T18:53:51.607Z,96636.88
2022-11-24T18:56:19.168Z,96628.75
2022-11-24T18:58:46.967Z,96625.19
2022-11-24T19:01:16.227Z,96630.00
2022-11-24T19:03:48.670Z,96632.09
2022-11-24T19:06:19.854Z,96631.44
2022-11-24T19:08:48.291Z,96617.69
2022-11-24T19:11:20.408Z,96620.28
2022-11-24T19:13:49.042Z,96628.72
2022-11-24T19:16:17.451Z,96628.19
2022-11-24T19:18:50.269Z,96620.75
2022-11-24T19:21:22.796Z,96628.66
2022-11-24T19:23:50.486Z,96620.38
2022-11-24T19:26:18.510Z,96629.28
2022-11-24T19:28:46.228Z,96624.41
2022-11-24T19:31:16.386Z,96624.56
2022-11-24T19:33:44.391Z,96627.16
2022-11-24T19:36:13.920Z,96631.66
2022-11-24T19:38:43.427Z,96633.59
2022-11-24T19:41:12.906Z,96631.16
2022-11-24T19:43:41.713Z,96639.09
2022-11-24T19:46:12.179Z,96633.25
2022-11-24T19:48:41.470Z,96635.84
2022-11-24T19:51:13.130Z,96634.06
2022-11-24T19:53:41.191Z,96637.78
2022-11-24T19:56:13.274Z,96635.63
2022-11-24T19:58:41.759Z,96629.94
2022-11-24T20:01:11.276Z,96621.66
2022-11-24T20:03:40.082Z,96630.53
2022-11-24T20:06:09.554Z,96624.72
2022-11-24T20:08:38.419Z,96623.25
2022-11-24T20:11:07.678Z,96625.13
2022-11-24T20:13:37.835Z,96624.31
2022-11-24T20:16:05.955Z,96623.53
2022-11-24T20:18:38.952Z,96616.69
2022-11-24T20:21:11.855Z,96626.56
2022-11-24T20:23:39.815Z,96621.00
2022-11-24T20:26:09.183Z,96621.47
2022-11-24T20:28:38.272Z,96621.13
2022-11-24T20:31:07.794Z,96622.38
2022-11-24T20:33:36.322Z,96616.69
2022-11-24T20:36:07.031Z,96616.19
2022-11-24T20:38:35.477Z,96612.28
2022-11-24T20:41:08.940Z,96610.28
2022-11-24T20:43:38.377Z,96615.44
2022-11-24T20:46:07.634Z,96618.03
2022-11-24T20:48:36.025Z,96617.91
2022-11-24T20:51:04.783Z,96618.72
2022-11-24T20:53:32.280Z,96612.56
2022-11-24T20:56:06.025Z,96613.53
2022-11-24T20:58:34.985Z,96616.13
2022-11-24T21:01:08.806Z,96618.72
2022-11-24T21:03:41.394Z,96613.81
2022-11-24T21:06:11.586Z,96617.38
2022-11-24T21:08:40.081Z,96618.34
2022-11-24T21:11:08.794Z,96617.69
2022-11-24T21:13:37.349Z,96619.59
2022-11-24T21:16:15.206Z,96609.25
2022-11-24T21:18:43.505Z,96614.44
2022-11-24T21:21:11.515Z,96611.19
2022-11-24T21:23:39.121Z,96604.38
2022-11-24T21:26:13.063Z,96611.19
2022-11-24T21:28:43.176Z,96603.25
2022-11-24T21:31:14.849Z,96608.59
2022-11-24T21:33:44.769Z,96607.63
2022-11-24T21:36:14.496Z,96613.78
2022-11-24T21:38:42.684Z,96611.97
2022-11-24T21:41:11.755Z,96614.56
2022-11-24T21:43:39.361Z,96612.66
2022-11-24T21:46:09.473Z,96617.50
2022-11-24T21:48:45.377Z,96616.56
2022-11-24T21:51:15.581Z,96615.25
2022-11-24T21:53:44.397Z,96612.44
2022-11-24T21:56:14.362Z,96600.91
2022-11-24T21:58:45.549Z,96600.69
2022-11-24T22:01:13.357Z,96591.59
2022-11-24T22:03:42.328Z,96594.47
2022-11-24T22:06:10.208Z,96599.66
2022-11-24T22:08:37.921Z,96595.16
2022-11-24T22:11:07.485Z,96587.66
2022-11-24T22:13:35.381Z,96588.28
2022-11-24T22:16:05.298Z,96594.03
2022-11-24T22:18:34.239Z,96589.16
2022-11-24T22:21:03.871Z,96597.06
2022-11-24T22:23:32.065Z,96595.44
2022-11-24T22:26:04.148Z,96598.19
2022-11-24T22:28:33.060Z,96599.25
2022-11-24T22:31:04.974Z,96597.50
2022-11-24T22:33:32.868Z,96598.47
2022-11-24T22:36:01.451Z,96599.44
2022-11-24T22:38:31.583Z,96594.25
2022-11-24T22:41:02.890Z,96589.09
2022-11-24T22:43:32.561Z,96594.09
2022-11-24T22:46:04.831Z,96586.19
2022-11-24T22:48:32.598Z,96593.38
2022-11-24T22:51:04.804Z,96594.72
2022-11-24T22:53:34.006Z,96598.63
2022-11-24T22:56:02.620Z,96597.66
2022-11-24T22:58:30.555Z,96602.81
2022-11-24T23:00:58.114Z,96605.13
2022-11-24T23:03:25.752Z,96604.03
2022-11-24T23:05:53.368Z,96602.91
2022-11-24T23:08:20.905Z,96606.44
2022-11-24T23:10:49.767Z,96598.84
2022-11-24T23:13:17.292Z,96598.00
2022-11-24T23:15:44.792Z,96604.03
2022-11-24T23:18:12.516Z,96603.84
2022-11-24T23:20:40.036Z,96606.44
2022-11-24T23:23:07.568Z,96609.88
2022-11-24T23:25:35.437Z,96616.50
2022-11-24T23:28:04.363Z,96604.53
2022-11-24T23:30:31.882Z,96609.69
2022-11-24T23:32:59.427Z,96615.84
2022-11-24T23:35:26.995Z,96610.13
2022-11-24T23:38:08.331Z,96613.16
2022-11-24T23:40:35.860Z,96614.41
2022-11-24T23:43:04.743Z,96615.00
2022-11-24T23:45:33.162Z,96616.56
2022-11-24T23:48:01.699Z,96610.03
2022-11-24T23:50:29.990Z,96609.69
2022-11-24T23:52:57.516Z,96613.19
2022-11-24T23:55:25.108Z,96614.03
2022-11-24T23:57:52.670Z,96611.72
